Gastenboek Links Sitemap Wie is nu online Nieuw op Venhuizerweer Venhuizerweer voor mobiel

AMSTERDAM SCHIPHOL:
Amsterdam Airport Schiphol, Netherlands (EHAM) 52-18N 004-46E -2M
Dec 18, 2017 - 12:55 PM EST / 2017.12.18 1755 UTC
Wind: from the NNW (330 degrees) at 7 MPH (6 KT) (direction variable):0
Visibility: greater than 7 mile(s):0
Temperature: 41 F (5 C)
Dew Point: 37 F (3 C)
Relative Humidity: 86%
Pressure (altimeter): 30.36 in. Hg (1028 hPa)
ob: EHAM 181755Z 33006KT 300V360 CAVOK 05/03 Q1028 NOSIG
cycle: 18
DEELEN:
Deelen, Netherlands (EHDL) 52-04N 005-53E 52M
Dec 18, 2017 - 12:55 PM EST / 2017.12.18 1755 UTC
Wind: from the N (010 degrees) at 6 MPH (5 KT) (direction variable):0
Visibility: 4 mile(s):0
Sky conditions: overcast
Weather: mist
Temperature: 39 F (4 C)
Dew Point: 37 F (3 C)
Relative Humidity: 93%
Pressure (altimeter): 30.36 in. Hg (1028 hPa)
ob: EHDL 181755Z AUTO 01005KT 320V040 7000 BR FEW009 OVC012 04/03 Q1028 GRN
cycle: 18
DE KOOY:
De Kooy, Netherlands (EHKD) 52-55N 004-47E 14M
Dec 18, 2017 - 12:55 PM EST / 2017.12.18 1755 UTC
Wind: from the NNW (330 degrees) at 6 MPH (5 KT) (direction variable):0
Visibility: greater than 7 mile(s):0
Sky conditions: overcast
Temperature: 42 F (6 C)
Dew Point: 41 F (5 C)
Relative Humidity: 93%
Pressure (altimeter): 30.36 in. Hg (1028 hPa)
ob: EHKD 181755Z AUTO 33005KT 300V010 9999 OVC370 06/05 Q1028 BLU 35005KT 9999 SCT023 BKN180
cycle: 18
EELDE:
Groningen Airport Eelde, Netherlands (EHGG) 53-08N 006-35E 4M
Dec 18, 2017 - 12:55 PM EST / 2017.12.18 1755 UTC
Wind: from the WSW (250 degrees) at 5 MPH (4 KT):0
Visibility: 1 mile(s):0
Sky conditions: overcast
Weather: mist
Temperature: 35 F (2 C)
Windchill: 30 F (-1 C):1
Dew Point: 35 F (2 C)
Relative Humidity: 100%
Pressure (altimeter): 30.33 in. Hg (1027 hPa)
ob: EHGG 181755Z AUTO 25004KT 2900 BR BKN008 BKN026 OVC029 02/02 Q1027 TEMPO 4000
cycle: 18
EINDHOVEN:
Eindhoven, Netherlands (EHEH) 51-27N 005-25E 28M
Dec 18, 2017 - 12:55 PM EST / 2017.12.18 1755 UTC
Wind: from the NNW (340 degrees) at 6 MPH (5 KT) (direction variable):0
Visibility: 5 mile(s):0
Sky conditions: mostly cloudy
Weather: mist
Temperature: 44 F (7 C)
Dew Point: 42 F (6 C)
Relative Humidity: 93%
Pressure (altimeter): 30.36 in. Hg (1028 hPa)
ob: EHEH 181755Z AUTO 34005KT 260V060 9000 BR SCT007 BKN008 BKN010 07/06 Q1028 GRN 33006KT 9999 FEW008 SCT010 BKN015 TEMPO 4000 BR SCT005 BKN008 BKN010
cycle: 18
GILZE-RIJEN:
Gilze-Rijen, Netherlands (EHGR) 51-34N 004-56E 24M
Dec 18, 2017 - 12:55 PM EST / 2017.12.18 1755 UTC
Wind: from the N (350 degrees) at 7 MPH (6 KT) (direction variable):0
Visibility: 4 mile(s):0
Sky conditions: overcast
Weather: mist
Temperature: 44 F (7 C)
Dew Point: 42 F (6 C)
Relative Humidity: 93%
Pressure (altimeter): 30.36 in. Hg (1028 hPa)
ob: EHGR 181755Z AUTO 35006KT 290V060 8000 BR FEW006 BKN017 OVC022 07/06 Q1028 REDZ WHT
cycle: 18
LEEUWARDEN:
Leeuwarden, Netherlands (EHLW) 53-13N 005-46E 11M
Dec 18, 2017 - 12:55 PM EST / 2017.12.18 1755 UTC
Wind: from the S (190 degrees) at 6 MPH (5 KT) (direction variable):0
Visibility: 1 mile(s):0
Sky conditions: mostly cloudy
Weather: mist
Temperature: 35 F (2 C)
Windchill: 30 F (-1 C):1
Dew Point: 35 F (2 C)
Relative Humidity: 100%
Pressure (altimeter): 30.36 in. Hg (1028 hPa)
ob: EHLW 181755Z AUTO 19005KT 180V260 2400 R23/2100D BR FEW033 BKN190 BKN360 02/02 Q1028 YLO
cycle: 18
MAASTRICHT:
Maastricht Airport Zuid Limburg, Netherlands (EHBK) 50-55N 005-47E 116M
Dec 18, 2017 - 12:55 PM EST / 2017.12.18 1755 UTC
Wind: from the NNE (030 degrees) at 6 MPH (5 KT):0
Visibility: greater than 7 mile(s):0
Sky conditions: overcast
Temperature: 41 F (5 C)
Dew Point: 41 F (5 C)
Relative Humidity: 100%
Pressure (altimeter): 30.33 in. Hg (1027 hPa)
ob: EHBK 181755Z AUTO 03005KT 9999 FEW008 OVC010 05/05 Q1027 TEMPO 6000 RADZ
cycle: 18
ROTTERDAM ZESTIENHOVEN:
Rotterdam Airport Zestienhoven, Netherlands (EHRD) 51-57N 004-27E -4M
Dec 18, 2017 - 12:55 PM EST / 2017.12.18 1755 UTC
Wind: from the N (350 degrees) at 6 MPH (5 KT) (direction variable):0
Visibility: 5 mile(s):0
Sky conditions: mostly cloudy
Temperature: 42 F (6 C)
Dew Point: 41 F (5 C)
Relative Humidity: 93%
Pressure (altimeter): 30.39 in. Hg (1029 hPa)
ob: EHRD 181755Z AUTO 35005KT 320V020 9000 SCT033 BKN038 06/05 Q1029 NOSIG
cycle: 18
SOESTERBERG:
Soesterberg, Netherlands (EHSB) 52-08N 005-17E 25M
Nov 20, 2008 - 04:25 AM EST / 2008.11.20 0925 UTC
Wind: from the W (280 degrees) at 16 MPH (14 KT):0
Visibility: greater than 7 mile(s):0
Temperature: 51 F (11 C)
Dew Point: 48 F (9 C)
Relative Humidity: 87%
Pressure (altimeter): 29.83 in. Hg (1010 hPa)
ob: EHSB 200925Z AUTO 28014KT 9999 // 11/09 Q1010
cycle: 9
TWENTE:
Twenthe, Netherlands (EHTW) 52-16N 006-54E 57M
Apr 07, 2008 - 08:25 AM EDT / 2008.04.07 1225 UTC
Wind: from the N (010 degrees) at 7 MPH (6 KT):0
Sky conditions: mostly cloudy
Temperature: 46 F (8 C)
Dew Point: 24 F (-4 C)
Relative Humidity: 42%
Pressure (altimeter): 29.59 in. Hg (1002 hPa)
ob: EHTW 071225Z AUTO 01006KT //// // BKN200/// 08/M04 Q1002 RE//
cycle: 12
VALKENBURG:
Valkenburg, Netherlands (EHVB) 52-11N 004-25E 2M
Apr 01, 2010 - 03:55 AM EDT / 2010.04.01 0755 UTC
Wind: from the WSW (250 degrees) at 20 MPH (17 KT):0
Sky conditions: mostly cloudy
Temperature: 41 F (5 C)
Dew Point: 33 F (1 C)
Relative Humidity: 75%
Pressure (altimeter): 29.62 in. Hg (1003 hPa)
ob: EHVB 010755Z AUTO 25017KT 9999NDV FEW021/// BKN037/// 05/01 Q1003 BLU
cycle: 8
VLIELAND:
Vlieland, Netherlands (EHVL) 53-15N 004-55E 12M
Dec 18, 2017 - 12:55 PM EST / 2017.12.18 1755 UTC
Wind: from the NNW (340 degrees) at 12 MPH (10 KT):0
Visibility: 3 mile(s):0
Sky conditions: overcast
Weather: mist
Temperature: 44 F (7 C)
Dew Point: 41 F (5 C)
Relative Humidity: 87%
Pressure (altimeter): 30.36 in. Hg (1028 hPa)
ob: EHVL 181755Z AUTO 34010KT 6000 BR SCT020 OVC240 07/05 Q1028 WHT
cycle: 18
VOLKEL:
Volkel, Netherlands (EHVK) 51-39N 005-42E 21M
Dec 18, 2017 - 12:55 PM EST / 2017.12.18 1755 UTC
Wind: from the NNE (030 degrees) at 6 MPH (5 KT):0
Visibility: greater than 7 mile(s):0
Sky conditions: overcast
Temperature: 41 F (5 C)
Dew Point: 39 F (4 C)
Relative Humidity: 93%
Pressure (altimeter): 30.36 in. Hg (1028 hPa)
ob: EHVK 181755Z AUTO 03005KT 9999 SCT008 BKN010 OVC012 05/04 Q1028 GRN
cycle: 18
WOENSDRECHT:
Woensdrecht, Netherlands (EHWO) 51-27N 004-20E 17M
Dec 18, 2017 - 12:55 PM EST / 2017.12.18 1755 UTC
Wind: from the NW (320 degrees) at 5 MPH (4 KT) (direction variable):0
Visibility: greater than 7 mile(s):0
Sky conditions: overcast
Temperature: 44 F (7 C)
Dew Point: 41 F (5 C)
Relative Humidity: 87%
Pressure (altimeter): 30.36 in. Hg (1028 hPa)
ob: EHWO 181755Z AUTO 32004KT 270V010 9999 OVC031 07/05 Q1028 BLU
cycle: 18
Copyright © 2005 - 2017 Venhuizerweer - Alle Rechten Voorbehouden


54.92.194.75